Latest Weather Observations for Hobart

IDT60801

Issued at 11:31 pm EST Wednesday 27 May 2015 (issued every 30 minutes, with the page automatically refreshed every 10 minutes)

About weather observations | Map of weather stations | Latest weather observations for TAS | Other Formats
Station Details ID: 094029 Name: HOBART (ELLERSLIE ROAD) Lat: -42.89 Lon: 147.33 Height: 50.5 m
Data from the previous 72 hours. | See also: Recent months at Hobart
Date/Time
EST
Temp
°C
App
Temp
°C
Dew
Point
Rel
Hum
%
Delta-T
°C
Wind Press
QNH
hPa
Press
MSL
hPa
Rain
since 9 am
mm
Dir
 
Spd
km/h
Gust
km/h
Spd
kts
Gust
kts
27/11:30pm 13.0 10.6 7.0 67 2.9 WNW 9 17 5 9 1011.5 1011.5 0.0
27/11:00pm 12.8 11.1 7.5 70 2.6 SW 6 7 3 4 1011.2 1011.2 0.0
27/10:30pm 12.2 10.5 7.5 73 2.3 SSE 6 9 3 5 1011.0 1011.0 0.0
27/10:00pm 11.9 10.9 7.4 74 2.2 SE 2 6 1 3 1011.0 1011.0 0.0
27/09:30pm 11.3 10.2 7.1 75 2.0 NNW 2 7 1 4 1011.4 1011.4 0.0
27/09:00pm 11.7 8.9 7.1 73 2.2 NNW 11 19 6 10 1011.6 1011.6 0.0
27/08:30pm 12.0 6.7 6.8 70 2.5 NNW 24 32 13 17 1011.5 1011.5 0.0
27/08:00pm 12.1 7.8 6.9 70 2.5 NNW 19 26 10 14 1011.7 1011.7 0.0
27/07:30pm 12.6 7.3 7.0 68 2.7 NNW 24 33 13 18 1011.6 1011.6 0.0
27/07:00pm 12.4 8.0 7.2 70 2.5 NNW 20 26 11 14 1011.8 1011.8 0.0
27/06:30pm 12.3 8.4 7.1 70 2.5 NNW 17 24 9 13 1011.8 1011.8 0.0
27/06:00pm 12.6 10.3 7.5 71 2.5 NNW 9 15 5 8 1011.9 1012.1 0.0
27/05:30pm 12.2 10.5 7.7 74 2.2 NNW 6 9 3 5 1012.1 1012.1 0.0
27/05:00pm 12.6 11.3 7.7 72 2.4 NNW 4 9 2 5 1012.2 1012.2 0.0
27/04:30pm 13.2 11.9 7.5 68 2.8 WNW 4 11 2 6 1012.2 1012.2 0.0
27/04:00pm 13.2 11.6 8.2 71 2.5 SE 6 7 3 4 1012.4 1012.4 0.0
27/03:30pm 14.0 11.3 7.3 64 3.3 NNW 11 17 6 9 1012.5 1012.5 0.0
27/03:00pm 15.0 12.0 7.6 61 3.7 NNW 13 20 7 11 1012.5 1012.5 0.0
27/02:30pm 14.6 11.6 7.5 62 3.5 NNW 13 17 7 9 1012.8 1012.8 0.0
27/02:00pm 14.4 10.6 7.5 63 3.4 NW 17 24 9 13 1013.0 1013.0 0.0
27/01:30pm 14.2 10.8 7.5 64 3.3 NNW 15 20 8 11 1013.5 1013.5 0.0
27/01:00pm 14.5 11.0 7.2 61 3.6 NNW 15 19 8 10 1013.9 1013.9 0.0
27/12:30pm 12.4 8.4 6.8 68 2.7 NNW 17 26 9 14 1014.3 1014.3 0.0
27/12:00pm 12.5 8.1 6.4 66 2.9 NNW 19 26 10 14 1015.0 1015.0 0.0
27/11:30am 11.5 6.4 5.9 68 2.6 NNW 22 33 12 18 1015.4 1015.4 0.0
27/11:00am 10.8 6.2 5.6 70 2.4 N 19 28 10 15 1016.3 1016.3 0.0
27/10:30am 8.3 4.8 5.4 82 1.3 N 13 17 7 9 1017.1 1017.1 0.0
27/10:00am 7.7 4.6 5.5 86 1.0 NNE 11 17 6 9 1017.3 1017.3 0.0
27/09:30am 7.2 4.1 5.4 88 0.8 NNW 11 20 6 11 1017.5 1017.5 0.0
27/09:00am 6.8 2.1 5.0 88 0.8 NNW 19 24 10 13 1017.7 1017.7 0.0
27/08:30am 6.9 2.2 5.3 89 0.7 NNW 19 22 10 12 1017.9 1017.9 0.0
27/08:00am 7.1 2.3 5.5 89 0.7 NNW 20 28 11 15 1018.0 1018.0 0.0
27/07:30am 6.2 2.2 4.8 91 0.6 NW 15 24 8 13 1018.3 1018.3 0.0
27/07:00am 6.6 2.3 5.2 91 0.6 WNW 17 26 9 14 1018.5 1018.6 0.0
27/06:30am 5.9 2.2 4.7 92 0.5 NNW 13 22 7 12 1018.5 1018.6 0.0
27/06:00am 5.8 2.1 4.6 92 0.5 NNW 13 24 7 13 1018.7 1018.9 0.0
27/05:30am 6.5 2.2 5.1 91 0.6 NNW 17 22 9 12 1019.0 1019.1 0.0
27/05:00am 6.8 2.2 5.4 91 0.6 NNW 19 24 10 13 1019.3 1019.4 0.0
27/04:30am 6.9 2.3 5.8 93 0.5 NNW 19 26 10 14 1019.4 1019.5 0.0
27/04:00am 6.6 2.7 5.5 93 0.5 NNW 15 26 8 14 1019.9 1020.0 0.0
27/03:30am 6.6 3.2 5.7 94 0.4 N 13 19 7 10 1020.4 1020.5 0.0
27/03:00am 6.6 3.1 5.5 93 0.5 NW 13 19 7 10 1021.0 1021.1 0.0
27/02:30am 6.6 3.5 5.7 94 0.4 NW 11 15 6 8 1021.3 1021.4 0.0
27/02:00am 6.8 3.4 6.1 95 0.3 NW 13 17 7 9 1021.7 1021.8 0.0
27/01:30am 6.4 2.9 5.5 94 0.4 NNW 13 17 7 9 1021.9 1022.0 0.0
27/01:00am 6.8 4.5 5.9 94 0.4 NNW 7 9 4 5 1022.0 1022.1 0.0
27/12:30am 7.2 5.0 6.1 93 0.5 NNW 7 9 4 5 1022.3 1022.4 0.0
27/12:00am 7.9 5.5 6.8 93 0.5 WSW 9 13 5 7 1022.7 1022.9 0.0
 
Date/Time
EST
Temp
°C
App
Temp
°C
Dew
Point
Rel
Hum
%
Delta-T
°C
Wind Press
QNH
hPa
Press
MSL
hPa
Rain
since 9 am
mm
Dir
 
Spd
km/h
Gust
km/h
Spd
kts
Gust
kts
26/11:30pm 7.3 5.1 6.2 93 0.5 NNW 7 9 4 5 1023.2 1023.3 0.0
26/11:00pm 7.1 4.5 6.2 94 0.4 WSW 9 11 5 6 1023.5 1023.6 0.0
26/10:30pm 7.6 5.5 6.5 93 0.5 W 7 9 4 5 1023.8 1023.9 0.0
26/10:00pm 7.9 5.0 6.6 91 0.6 W 11 15 6 8 1024.2 1024.3 0.0
26/09:30pm 7.9 5.8 6.6 91 0.6 W 7 9 4 5 1024.1 1024.2 0.0
26/09:00pm 8.2 5.8 6.9 91 0.6 WSW 9 13 5 7 1024.2 1024.3 0.0
26/08:30pm 8.8 6.4 7.1 89 0.8 WSW 9 13 5 7 1024.4 1024.5 0.0
26/08:00pm 9.5 7.6 7.4 87 1.0 WSW 7 9 4 5 1024.5 1024.6 0.0
26/07:30pm 9.7 7.0 7.4 85 1.1 WSW 11 13 6 7 1024.8 1024.9 0.0
26/07:00pm 9.8 7.1 7.5 85 1.1 WSW 11 13 6 7 1024.9 1025.0 0.0
26/06:30pm 10.2 8.0 7.9 86 1.1 SW 9 11 5 6 1025.0 1025.1 0.0
26/06:00pm 10.5 8.0 8.0 84 1.2 SW 11 15 6 8 1024.9 1025.0 0.0
26/05:30pm 11.0 8.9 8.1 82 1.4 SW 9 13 5 7 1025.0 1025.1 0.0
26/05:00pm 11.4 8.9 8.1 80 1.6 S 11 19 6 10 1024.7 1024.8 0.0
26/04:30pm 12.1 9.2 8.0 76 2.0 SE 13 20 7 11 1024.8 1024.9 0.0
26/04:00pm 12.8 10.7 8.1 73 2.3 ESE 9 13 5 7 1024.8 1024.9 0.0
26/03:30pm 12.9 11.3 8.2 73 2.3 ESE 6 9 3 5 1024.8 1024.9 0.0
26/03:00pm 12.9 10.8 8.2 73 2.3 SE 9 11 5 6 1024.6 1024.7 0.0
26/02:30pm 12.9 10.9 8.5 74 2.2 ESE 9 11 5 6 1024.7 1024.8 0.0
26/02:00pm 12.5 9.3 8.5 76 2.0 SE 15 20 8 11 1024.7 1024.8 0.0
26/01:30pm 12.7 9.9 8.5 75 2.1 ESE 13 19 7 10 1024.9 1025.0 0.0
26/01:00pm 13.4 10.9 8.1 70 2.6 ESE 11 15 6 8 1025.1 1025.2 0.0
26/12:30pm 13.5 11.1 7.1 65 3.1 ESE 9 13 5 7 1025.3 1025.4 0.0
26/12:00pm 13.7 11.6 6.6 62 3.4 E 7 9 4 5 1025.6 1025.7 0.0
26/11:30am 13.2 11.3 6.7 64 3.1 E 6 9 3 5 1026.2 1026.3 0.0
26/11:00am 12.8 10.9 7.4 69 2.6 NE 7 9 4 5 1026.5 1026.6 0.0
26/10:30am 12.7 11.5 8.0 73 2.3 SE 4 7 2 4 1026.7 1026.8 0.0
26/10:00am 12.5 11.7 8.2 75 2.1 SE 2 6 1 3 1026.8 1026.9 0.0
26/09:30am 11.8 11.3 7.9 77 1.9 CALM 0 0 0 0 1026.8 1026.9 0.0
26/09:00am 9.8 9.3 7.7 87 1.0 CALM 0 0 0 0 1026.8 1026.9 0.0
26/08:30am 9.1 7.4 7.4 89 0.8 NW 6 11 3 6 1026.8 1026.9 0.0
26/08:00am 9.3 6.6 7.2 87 1.0 WSW 11 15 6 8 1026.5 1026.6 0.0
26/07:30am 8.7 6.7 7.0 89 0.8 WSW 7 9 4 5 1026.4 1026.5 0.0
26/07:00am 8.4 7.6 6.4 87 0.9 CALM 0 0 0 0 1026.2 1026.3 0.0
26/06:30am 9.2 6.3 6.6 84 1.2 WSW 11 15 6 8 1025.9 1026.0 0.0
26/06:00am 9.3 6.4 6.5 83 1.3 WSW 11 15 6 8 1025.7 1025.8 0.0
26/05:30am 8.9 6.9 6.3 84 1.2 W 6 11 3 6 1025.5 1025.6 0.0
26/05:00am 10.1 7.6 6.4 78 1.7 WSW 9 13 5 7 1025.5 1025.6 0.0
26/04:30am 9.4 6.8 6.1 80 1.5 WSW 9 19 5 10 1025.3 1025.4 0.0
26/04:00am 9.5 7.3 6.2 80 1.5 SW 7 11 4 6 1025.3 1025.4 0.0
26/03:30am 9.5 6.9 6.0 79 1.6 SW 9 11 5 6 1025.4 1025.5 0.0
26/03:00am 9.6 7.6 6.1 79 1.6 N 6 9 3 5 1025.3 1025.4 0.0
26/02:30am 9.5 7.3 6.2 80 1.5 WSW 7 13 4 7 1025.4 1025.5 0.0
26/02:00am 9.8 7.5 5.9 77 1.8 W 7 13 4 7 1025.4 1025.5 0.0
26/01:30am 10.0 6.2 5.9 75 1.9 W 15 20 8 11 1025.1 1025.2 0.0
26/01:00am 10.2 7.9 5.8 74 2.0 SW 7 13 4 7 1025.2 1025.3 0.0
26/12:30am 10.3 6.5 5.7 73 2.1 NNW 15 22 8 12 1025.0 1025.1 0.0
26/12:00am 10.5 5.3 5.5 71 2.3 NW 22 30 12 16 1025.1 1025.2 0.0
 
Date/Time
EST
Temp
°C
App
Temp
°C
Dew
Point
Rel
Hum
%
Delta-T
°C
Wind Press
QNH
hPa
Press
MSL
hPa
Rain
since 9 am
mm
Dir
 
Spd
km/h
Gust
km/h
Spd
kts
Gust
kts
25/11:30pm 10.1 4.9 5.5 73 2.1 NNW 22 33 12 18 1025.0 1025.1 0.0
25/11:00pm 10.1 3.7 5.2 71 2.2 NNW 28 33 15 18 1024.9 1025.0 0.0
25/10:30pm 9.8 4.1 5.1 72 2.1 NNW 24 30 13 16 1025.3 1025.4 0.0
25/10:00pm 9.6 3.9 4.9 72 2.1 NNW 24 30 13 16 1025.4 1025.5 0.0
25/09:30pm 9.7 4.0 5.0 72 2.1 NNW 24 32 13 17 1025.6 1025.7 0.0
25/09:00pm 9.7 4.0 5.0 72 2.1 NNW 24 30 13 16 1025.6 1025.7 0.0
25/08:30pm 9.8 4.5 4.9 71 2.2 NNW 22 28 12 15 1025.5 1025.6 0.0
25/08:00pm 10.0 4.3 4.9 70 2.3 NW 24 35 13 19 1025.6 1025.7 0.0
25/07:30pm 9.3 5.0 5.1 75 1.9 NNW 17 26 9 14 1026.0 1026.1 0.0
25/07:00pm 9.8 5.5 5.1 72 2.1 NNW 17 22 9 12 1025.9 1026.0 0.0
25/06:30pm 9.6 6.9 5.4 75 1.9 NW 9 13 5 7 1025.9 1026.0 0.0
25/06:00pm 9.6 6.9 5.4 75 1.9 N 9 15 5 8 1025.8 1025.9 0.0
25/05:30pm 10.1 7.0 5.7 74 2.0 NW 11 19 6 10 1025.7 1025.8 0.0
25/05:00pm 10.4 6.9 5.3 70 2.3 WNW 13 20 7 11 1025.6 1025.7 0.0
25/04:30pm 10.8 8.0 5.3 69 2.5 NW 9 15 5 8 1025.5 1025.6 0.0
25/04:00pm 11.3 7.8 5.4 67 2.7 NW 13 20 7 11 1025.5 1025.6 0.0
25/03:30pm 11.4 7.9 5.3 66 2.8 NW 13 20 7 11 1025.9 1026.0 0.0
25/03:00pm 11.3 7.0 5.2 66 2.8 NNW 17 24 9 13 1025.9 1026.0 0.0
25/02:30pm 11.8 7.4 5.0 63 3.1 NNW 17 22 9 12 1026.0 1026.1 0.0
25/02:00pm 11.8 7.9 5.3 64 3.0 NW 15 24 8 13 1026.1 1026.2 0.0
25/01:30pm 11.4 7.0 4.8 64 3.0 NNW 17 24 9 13 1026.4 1026.5 0.0
25/01:00pm 11.3 6.5 4.4 62 3.1 NW 19 26 10 14 1026.6 1026.7 0.0
25/12:30pm 11.2 6.3 4.3 62 3.1 NNW 19 26 10 14 1026.8 1026.9 0.0
25/12:00pm 11.4 6.3 4.2 61 3.2 NW 20 28 11 15 1027.0 1027.1 0.0
25/11:30am 11.7 6.6 4.1 59 3.4 NW 20 28 11 15 1027.3 1027.4 0.0
25/11:00am 11.0 6.1 4.0 62 3.1 NW 19 28 10 15 1027.9 1028.0 0.0
25/10:30am 10.6 5.5 4.0 63 2.9 NW 20 28 11 15 1028.0 1028.1 0.0
25/10:00am 9.2 3.6 3.6 68 2.4 NNW 22 32 12 17 1028.0 1028.1 0.0
25/09:30am 8.4 4.1 3.2 70 2.2 NNW 15 22 8 12 1028.1 1028.2 0.0
25/09:00am 8.4 4.5 3.5 71 2.1 NNW 13 19 7 10 1028.3 1028.4 0.0
25/08:30am 6.1 3.5 3.2 82 1.2 NNW 6 11 3 6 1028.5 1028.6 0.0
25/08:00am 5.6 2.4 2.9 83 1.1 NNW 9 15 5 8 1028.5 1028.6 0.0
25/07:30am 5.3 1.7 3.1 86 0.9 NW 11 17 6 9 1028.5 1028.6 0.0
25/07:00am 5.9 0.6 3.2 83 1.1 NNW 20 30 11 16 1028.3 1028.4 0.0
25/06:30am 5.3 1.3 3.1 86 0.9 NNW 13 17 7 9 1028.2 1028.3 0.0
25/06:00am 5.3 2.7 3.1 86 0.9 NW 6 9 3 5 1028.0 1028.1 0.0
25/05:30am 5.6 2.4 3.2 84 1.0 NNW 9 13 5 7 1027.9 1028.0 0.0
25/05:00am 5.5 1.6 3.3 86 0.9 NW 13 20 7 11 1028.1 1028.2 0.0
25/04:30am 5.4 0.7 3.0 84 1.0 NW 17 28 9 15 1028.0 1028.1 0.0
25/04:00am 5.4 1.8 3.2 86 0.9 NW 11 19 6 10 1028.1 1028.2 0.0
25/03:30am 5.4 1.8 3.0 84 1.0 WNW 11 22 6 12 1028.2 1028.3 0.0
25/03:00am 5.4 0.6 2.7 83 1.1 NW 17 28 9 15 1028.4 1028.5 0.0
25/02:30am 4.9 1.6 2.7 86 0.9 WNW 9 17 5 9 1028.7 1028.8 0.0
25/02:00am 4.9 1.3 2.7 86 0.9 WNW 11 19 6 10 1028.6 1028.7 0.0
25/01:30am 5.3 1.3 3.1 86 0.9 NW 13 19 7 10 1028.6 1028.7 0.0
25/01:00am 5.4 2.6 3.0 84 1.0 NNW 7 11 4 6 1028.7 1028.8 0.0
25/12:30am 5.5 2.0 3.3 86 0.9 NW 11 13 6 7 1029.0 1029.1 0.0
25/12:00am 5.5 2.3 3.3 86 0.9 NW 9 13 5 7 1029.1 1029.2 0.0

Other Formats:

Comma delimited format used in spreadsheet applications
http://www.bom.gov.au/fwo/IDT60801/IDT60801.94970.axf

JavaScript Object Notation format (JSON) in row-major order
http://www.bom.gov.au/fwo/IDT60801/IDT60801.94970.json